Time;durP1;ratioP1;P1;durP2;ratioP2;P2;SDS_P1;SDS_P2;PMS_P1;PMS_P2;Temp;Humidity;BMP_temperature;BMP_pressure;BME280_temperature;BME280_humidity;BME280_pressure;Samples;Min_cycle;Max_cycle;Signal;HPM_P1;HPM_P2
2022/05/26 00:01:11;;;;;;;35.20;24.30;;;;;;;16.76;74.58;93697.00;5090704;28;20023;-51
2022/05/26 00:03:42;;;;;;;38.00;25.48;;;;;;;16.57;75.37;93704.00;5107307;28;20027;-51
2022/05/26 00:06:09;;;;;;;42.22;25.90;;;;;;;16.58;76.00;93697.13;5109611;28;20555;-49
2022/05/26 00:08:36;;;;;;;38.60;24.98;;;;;;;16.47;76.94;93702.47;5111116;28;20051;-48
2022/05/26 00:11:04;;;;;;;39.88;25.67;;;;;;;16.44;77.08;93693.22;5110943;28;20023;-48
2022/05/26 00:13:30;;;;;;;36.78;24.10;;;;;;;16.58;76.46;93688.00;5110664;28;20023;-49
2022/05/26 00:15:55;;;;;;;37.83;24.65;;;;;;;16.58;76.06;93694.31;5110621;28;20034;-50
2022/05/26 00:18:21;;;;;;;37.45;25.65;;;;;;;16.42;76.71;93695.84;5110616;28;20028;-48
2022/05/26 00:20:46;;;;;;;41.63;25.00;;;;;;;16.37;77.14;93688.47;5110849;28;20080;-50
2022/05/26 00:23:12;;;;;;;38.10;24.67;;;;;;;16.47;76.39;93697.63;5110873;28;20039;-49
2022/05/26 00:25:37;;;;;;;35.58;24.85;;;;;;;16.44;75.73;93693.22;5110675;28;20020;-51
2022/05/26 00:28:03;;;;;;;34.90;24.35;;;;;;;16.37;76.21;93694.06;5108687;28;20030;-47
2022/05/26 00:30:29;;;;;;;38.97;24.42;;;;;;;16.29;75.55;93687.88;5090157;28;20108;-48
2022/05/26 00:32:54;;;;;;;35.38;23.85;;;;;;;16.29;75.21;93696.22;5090473;28;20028;-49
2022/05/26 00:35:20;;;;;;;43.15;27.58;;;;;;;16.01;76.33;93685.69;5090104;28;20527;-51
2022/05/26 00:37:46;;;;;;;39.58;24.45;;;;;;;16.08;75.98;93690.44;5090536;28;20078;-47
2022/05/26 00:40:13;;;;;;;36.88;23.85;;;;;;;16.08;75.42;93689.69;5090284;28;20024;-50
2022/05/26 00:42:39;;;;;;;39.80;25.00;;;;;;;15.86;75.66;93688.69;5093285;28;20118;-51
2022/05/26 00:45:05;;;;;;;37.03;24.40;;;;;;;15.71;75.97;93695.22;5094486;28;20165;-49
2022/05/26 00:47:34;;;;;;;38.55;24.80;;;;;;;15.63;77.23;93691.06;5094393;28;20043;-48
2022/05/26 00:50:11;;;;;;;41.37;27.40;;;;;;;15.63;78.50;93688.28;5092892;28;20055;-50
2022/05/26 00:52:42;;;;;;;36.80;23.90;;;;;;;15.78;76.88;93694.38;5093180;28;20416;-49
2022/05/26 00:55:14;;;;;;;34.80;23.30;;;;;;;15.63;75.64;93700.13;5094264;28;20027;-47
2022/05/26 00:57:45;;;;;;;32.80;22.00;;;;;;;15.82;75.16;93688.38;5094225;28;20052;-49
2022/05/26 01:00:14;;;;;;;37.58;24.20;;;;;;;15.74;75.34;93688.47;5112156;28;20504;-50
2022/05/26 01:03:15;;;;;;;36.70;22.77;;;;;;;15.73;75.98;93691.84;5113321;28;20072;-48
2022/05/26 01:05:49;;;;;;;36.08;23.17;;;;;;;15.79;75.49;93686.75;5100552;28;20045;-49
2022/05/26 01:08:23;;;;;;;31.90;22.27;;;;;;;15.55;76.42;93696.69;5114233;28;20446;-48
2022/05/26 01:10:48;;;;;;;34.33;23.40;;;;;;;15.61;76.38;93690.91;5113180;28;20019;-49
2022/05/26 01:13:16;;;;;;;33.13;23.00;;;;;;;15.52;76.06;93680.44;5113217;28;20404;-51
2022/05/26 01:15:46;;;;;;;41.97;27.50;;;;;;;15.56;76.37;93703.00;5112712;28;20027;-49
2022/05/26 01:18:19;;;;;;;40.03;27.23;;;;;;;15.55;75.80;93691.13;5113113;28;20038;-48
2022/05/26 01:20:54;;;;;;;39.80;27.58;;;;;;;15.35;77.60;93700.63;5112622;28;20606;-46
2022/05/26 01:23:28;;;;;;;43.70;25.88;;;;;;;15.28;78.19;93700.72;5114068;28;20040;-50
2022/05/26 01:26:37;;;;;;;42.00;26.85;;;;;;;15.21;78.72;93718.97;5114067;28;20042;-47
2022/05/26 01:29:32;;;;;;;34.78;23.75;;;;;;;15.31;77.82;93719.06;5097950;28;20031;-49
2022/05/26 01:32:05;;;;;;;41.38;25.35;;;;;;;15.31;77.48;93714.19;5092849;28;20115;-49
2022/05/26 01:34:39;;;;;;;44.13;27.50;;;;;;;15.07;79.13;93707.41;5092040;28;20051;-50
2022/05/26 01:37:30;;;;;;;40.03;25.27;;;;;;;15.07;79.75;93712.25;5092041;28;20034;-50
2022/05/26 01:40:08;;;;;;;36.40;23.65;;;;;;;15.22;77.89;93708.56;5093323;28;20027;-47
2022/05/26 01:42:51;;;;;;;42.30;26.50;;;;;;;15.12;77.64;93725.16;5093219;28;20032;-46
2022/05/26 01:46:08;;;;;;;38.13;25.52;;;;;;;15.12;77.68;93725.16;5093142;28;20946;-51
2022/05/26 01:48:55;;;;;;;36.03;24.92;;;;;;;14.96;77.90;93715.53;5087837;28;20043;-49
2022/05/26 01:51:33;;;;;;;37.17;26.77;;;;;;;14.90;78.37;93720.59;5071391;28;20516;-48
2022/05/26 01:54:24;;;;;;;38.45;25.55;;;;;;;14.95;78.44;93733.50;5091716;28;20024;-51
2022/05/26 01:57:04;;;;;;;41.28;26.48;;;;;;;14.91;78.45;93739.47;5092809;28;20024;-49
2022/05/26 01:59:33;;;;;;;42.15;26.45;;;;;;;14.91;79.09;93722.78;5092959;28;20439;-52
2022/05/26 02:02:22;;;;;;;43.50;27.48;;;;;;;14.84;78.78;93706.91;5092654;28;20092;-50
2022/05/26 02:04:55;;;;;;;37.05;24.33;;;;;;;14.98;78.30;93710.13;5092966;28;20020;-51
2022/05/26 02:07:34;;;;;;;37.45;25.45;;;;;;;15.08;78.25;93717.25;5108404;28;20036;-48
2022/05/26 02:10:00;;;;;;;;;;;;;;;15.08;77.63;93711.69;5109265;28;20470;-47
2022/05/26 02:12:36;;;;;;;34.97;24.80;;;;;;;14.84;78.75;93711.72;5092641;28;20010;-49
2022/05/26 02:15:08;;;;;;;40.10;26.55;;;;;;;14.75;78.98;93702.00;5108165;28;20031;-50
2022/05/26 02:18:05;;;;;;;41.47;26.02;;;;;;;14.73;79.13;93701.09;5092714;28;20039;-51
2022/05/26 02:20:43;;;;;;;38.63;25.88;;;;;;;14.80;78.65;93700.28;5093698;28;20040;-49
2022/05/26 02:23:12;;;;;;;34.00;23.83;;;;;;;14.92;78.32;93706.84;5107954;28;20036;-48
2022/05/26 02:25:38;;;;;;;38.50;25.08;;;;;;;14.78;78.68;93706.41;5091144;28;20055;-47
2022/05/26 02:28:05;;;;;;;34.05;24.45;;;;;;;14.86;78.15;93711.91;5092120;28;20051;-49
2022/05/26 02:30:34;;;;;;;38.90;25.20;;;;;;;15.00;77.20;93724.19;5092069;28;20574;-50
2022/05/26 02:33:00;;;;;;;30.55;22.58;;;;;;;14.98;76.78;93729.59;5090874;28;20028;-52
2022/05/26 02:35:29;;;;;;;35.17;22.73;;;;;;;14.98;76.63;93724.78;5091208;28;20024;-47
2022/05/26 02:37:59;;;;;;;38.08;24.95;;;;;;;14.90;77.22;93740.06;5092081;28;20027;-50
2022/05/26 02:40:25;;;;;;;38.85;24.58;;;;;;;14.83;77.98;93738.06;5090735;28;20045;-47
2022/05/26 02:43:11;;;;;;;51.03;28.95;;;;;;;14.63;79.40;93741.94;5092183;28;20024;-51
2022/05/26 02:45:44;;;;;;;47.03;30.60;;;;;;;14.57;79.83;93744.22;5092273;28;20495;-48
2022/05/26 02:48:41;;;;;;;49.08;30.42;;;;;;;14.40;81.10;93739.34;5090679;28;20032;-48
2022/05/26 02:51:17;;;;;;;55.78;29.90;;;;;;;14.49;81.03;93719.25;5098222;28;20027;-51
2022/05/26 02:54:06;;;;;;;44.40;30.45;;;;;;;14.45;81.48;93724.47;5111214;28;20454;-48
2022/05/26 02:56:41;;;;;;;;;;;;;;;14.44;81.65;93725.81;5112637;28;20031;-49
2022/05/26 02:59:30;;;;;;;45.20;28.58;;;;;;;14.37;81.92;93730.13;5112005;28;19914;-52
2022/05/26 03:02:12;;;;;;;44.70;28.75;;;;;;;14.28;82.53;93719.59;5111104;28;20165;-48
2022/05/26 03:04:41;;;;;;;40.53;26.92;;;;;;;14.39;82.40;93729.53;5111395;28;20084;-51
2022/05/26 03:07:17;;;;;;;40.13;27.42;;;;;;;14.48;81.58;93723.34;5110681;28;20055;-50
2022/05/26 03:09:42;;;;;;;45.33;29.38;;;;;;;14.46;81.44;93723.19;5110883;28;20046;-50
2022/05/26 03:12:23;;;;;;;35.20;26.25;;;;;;;14.53;80.76;93743.88;5110853;28;20477;-49
2022/05/26 03:14:48;;;;;;;41.10;26.75;;;;;;;14.50;81.62;93720.00;5111919;28;20112;-51
2022/05/26 03:17:14;;;;;;;36.13;25.58;;;;;;;14.57;80.97;93736.63;5111887;28;20492;-49
2022/05/26 03:19:39;;;;;;;40.58;26.50;;;;;;;14.67;80.64;93745.81;5111845;28;20019;-47
2022/05/26 03:22:04;;;;;;;40.35;25.77;;;;;;;14.61;80.40;93744.56;5111788;28;20043;-47
2022/05/26 03:24:30;;;;;;;35.47;24.88;;;;;;;14.65;80.16;93740.06;5111574;28;20459;-50
2022/05/26 03:26:55;;;;;;;38.45;26.85;;;;;;;14.67;80.32;93745.81;5111726;27;20484;-48
2022/05/26 03:29:21;;;;;;;34.50;25.15;;;;;;;14.74;80.03;93745.00;5098355;28;20530;-49
2022/05/26 03:31:46;;;;;;;35.80;25.40;;;;;;;14.67;80.28;93745.06;5091376;28;20036;-48
2022/05/26 03:42:28;;;;;;;38.72;25.30;;;;;;;14.72;79.94;93752.44;5091226;28;20129;-47
2022/05/26 03:44:56;;;;;;;35.80;25.15;;;;;;;14.59;79.96;93756.25;5090953;28;20114;-50
2022/05/26 03:47:21;;;;;;;35.33;24.85;;;;;;;14.66;79.85;93757.50;5095809;28;20032;-46
2022/05/26 03:49:47;;;;;;;34.35;24.30;;;;;;;14.68;80.26;93749.31;5111436;28;20031;-48
2022/05/26 03:52:12;;;;;;;32.67;23.08;;;;;;;14.82;80.57;93744.94;5111302;28;20028;-47
2022/05/26 03:54:38;;;;;;;34.42;24.25;;;;;;;14.97;80.86;93762.22;5111125;28;20062;-48
2022/05/26 03:57:03;;;;;;;35.53;24.60;;;;;;;14.99;80.34;93761.63;5110880;28;20020;-47
2022/05/26 03:59:30;;;;;;;37.78;24.63;;;;;;;15.13;79.28;93760.78;5110845;28;20027;-47
2022/05/26 04:01:55;;;;;;;38.05;24.58;;;;;;;15.16;78.95;93759.63;5111209;28;20028;-47
2022/05/26 04:04:21;;;;;;;34.28;24.13;;;;;;;15.00;79.15;93749.22;5111173;28;20027;-47
2022/05/26 04:06:46;;;;;;;37.20;25.67;;;;;;;15.13;79.16;93763.56;5110914;28;20023;-47
2022/05/26 04:09:11;;;;;;;35.40;24.35;;;;;;;15.17;79.43;93763.13;5110775;28;20055;-47
2022/05/26 04:11:37;;;;;;;35.80;24.58;;;;;;;15.32;79.10;93774.09;5111133;27;20076;-49
2022/05/26 04:14:02;;;;;;;31.30;23.42;;;;;;;15.43;78.63;93778.44;5110722;28;20035;-46
2022/05/26 04:16:28;;;;;;;34.60;23.30;;;;;;;15.54;77.90;93783.56;5110561;28;20084;-47
2022/05/26 04:18:53;;;;;;;33.72;22.70;;;;;;;15.58;77.90;93784.63;5110679;28;20020;-46
2022/05/26 04:21:19;;;;;;;31.70;23.10;;;;;;;15.63;77.34;93794.78;5110925;28;20028;-47
2022/05/26 04:23:45;;;;;;;33.63;26.15;;;;;;;15.74;77.26;93788.69;5110647;28;20035;-48
2022/05/26 04:26:11;;;;;;;37.38;27.27;;;;;;;15.77;77.32;93798.69;5110944;28;20020;-47
2022/05/26 04:28:36;;;;;;;36.70;26.40;;;;;;;15.79;77.59;93806.44;5104134;28;20451;-46
2022/05/26 04:31:03;;;;;;;30.05;22.50;;;;;;;15.84;77.82;93805.47;5090016;28;20428;-47
2022/05/26 04:33:28;;;;;;;36.13;26.13;;;;;;;15.98;77.28;93805.88;5089380;28;20088;-47
2022/05/26 04:35:54;;;;;;;29.48;23.90;;;;;;;15.96;76.91;93808.50;5088862;28;20115;-48
2022/05/26 04:38:20;;;;;;;31.27;23.40;;;;;;;16.06;76.65;93810.03;5090140;28;20046;-48
2022/05/26 04:40:55;;;;;;;31.70;22.73;;;;;;;16.20;75.88;93805.56;5089989;28;20028;-46
2022/05/26 04:43:21;;;;;;;35.53;25.15;;;;;;;16.21;76.51;93809.09;5094413;28;20428;-48
2022/05/26 04:45:46;;;;;;;28.73;22.73;;;;;;;16.36;76.21;93808.91;5110718;28;20027;-48
2022/05/26 04:48:12;;;;;;;25.63;21.15;;;;;;;16.47;76.26;93814.69;5110641;28;20027;-48
2022/05/26 04:50:37;;;;;;;28.98;22.17;;;;;;;16.56;75.61;93814.03;5110391;28;20045;-47
2022/05/26 04:53:03;;;;;;;33.60;21.30;;;;;;;16.68;75.33;93809.38;5110547;28;20030;-48
2022/05/26 04:55:28;;;;;;;86.65;27.42;;;;;;;16.81;75.33;93819.41;5110343;28;20031;-48
2022/05/26 04:57:54;;;;;;;37.47;24.20;;;;;;;16.93;75.16;93814.03;5110223;28;20030;-47
2022/05/26 05:00:20;;;;;;;30.52;22.48;;;;;;;17.06;74.17;93816.44;5110517;28;20031;-48
2022/05/26 05:02:45;;;;;;;40.33;22.48;;;;;;;17.08;73.96;93811.00;5110190;28;20060;-48
2022/05/26 05:05:11;;;;;;;30.30;21.90;;;;;;;17.28;73.58;93830.00;5110156;28;20039;-46
2022/05/26 05:07:37;;;;;;;34.00;22.30;;;;;;;17.41;73.17;93826.78;5110248;28;20023;-48
2022/05/26 05:10:03;;;;;;;44.38;20.92;;;;;;;17.56;72.09;93825.84;5110103;28;20081;-46
2022/05/26 05:12:28;;;;;;;29.25;20.88;;;;;;;17.71;71.43;93827.59;5110498;28;20401;-47
2022/05/26 05:14:55;;;;;;;28.23;21.38;;;;;;;17.71;71.13;93822.03;5110033;28;20034;-48
2022/05/26 05:17:22;;;;;;;31.45;21.20;;;;;;;17.78;72.03;93821.16;5110375;28;20031;-48
2022/05/26 05:19:49;;;;;;;29.80;21.40;;;;;;;17.87;72.06;93814.81;5110346;28;20023;-47
2022/05/26 05:22:21;;;;;;;58.53;23.92;;;;;;;17.97;71.95;93816.31;5110329;28;20046;-47
2022/05/26 05:25:10;;;;;;;30.23;20.83;;;;;;;18.06;71.66;93815.53;5110124;28;20506;-47
2022/05/26 05:27:49;;;;;;;56.10;22.58;;;;;;;18.23;71.56;93813.91;5111404;28;20024;-47
2022/05/26 05:30:36;;;;;;;33.67;20.67;;;;;;;18.34;71.04;93819.66;5093097;28;20032;-47
2022/05/26 05:33:08;;;;;;;43.75;20.45;;;;;;;18.50;70.39;93814.47;5092001;28;20048;-49
2022/05/26 05:35:39;;;;;;;41.05;21.90;;;;;;;18.67;70.28;93814.28;5093509;28;20054;-49
2022/05/26 05:38:04;;;;;;;32.58;20.98;;;;;;;18.81;70.09;93818.06;5093230;28;20034;-46
2022/05/26 05:40:30;;;;;;;30.77;21.38;;;;;;;18.97;69.70;93822.00;5104760;28;20616;-46
2022/05/26 05:42:56;;;;;;;26.88;19.30;;;;;;;19.17;69.40;93825.44;5112292;28;20106;-48
2022/05/26 05:45:21;;;;;;;30.35;20.55;;;;;;;19.34;69.01;93820.34;5113447;28;20129;-49
2022/05/26 05:47:47;;;;;;;30.50;20.30;;;;;;;19.46;68.57;93829.59;5113909;28;20071;-47
2022/05/26 05:50:12;;;;;;;28.73;20.85;;;;;;;19.68;69.06;93844.34;5113328;28;20023;-48
2022/05/26 05:52:37;;;;;;;32.33;20.92;;;;;;;19.88;68.27;93836.53;5113690;28;20031;-49
2022/05/26 05:55:04;;;;;;;26.20;20.60;;;;;;;19.97;68.08;93835.72;5113260;28;20042;-47
2022/05/26 05:57:30;;;;;;;28.98;21.15;;;;;;;20.05;68.13;93844.69;5113563;28;20027;-49
2022/05/26 05:59:56;;;;;;;31.85;23.10;;;;;;;20.12;68.85;93844.44;5113380;28;20024;-48
2022/05/26 06:02:21;;;;;;;37.25;24.38;;;;;;;20.10;69.43;93846.38;5113480;28;20034;-48
2022/05/26 06:04:47;;;;;;;37.35;25.55;;;;;;;20.09;69.89;93848.47;5113367;28;20038;-47
2022/05/26 06:07:21;;;;;;;28.08;20.67;;;;;;;20.08;70.36;93855.41;5113022;28;20111;-47
2022/05/26 06:09:47;;;;;;;30.08;22.33;;;;;;;19.96;70.60;93848.28;5112970;28;20084;-48
2022/05/26 06:12:13;;;;;;;32.47;21.33;;;;;;;20.30;70.14;93850.53;5113240;28;20042;-47
2022/05/26 06:14:40;;;;;;;28.58;20.88;;;;;;;20.59;69.29;93862.25;5113279;28;20019;-47
2022/05/26 06:17:08;;;;;;;32.45;21.20;;;;;;;20.29;69.08;93851.88;5112829;28;20027;-49
2022/05/26 06:19:35;;;;;;;32.45;22.38;;;;;;;20.75;68.86;93862.50;5113072;28;20440;-47
2022/05/26 06:22:12;;;;;;;51.67;22.20;;;;;;;21.10;67.84;93878.13;5113081;28;20713;-48
2022/05/26 06:37:28;;;;;;;27.80;18.77;;;;;;;23.11;60.06;93875.09;5128401;27;20619;-50
2022/05/26 06:39:56;;;;;;;23.45;17.55;;;;;;;23.28;58.71;93873.91;5128356;27;20035;-45
2022/05/26 06:42:24;;;;;;;29.45;18.73;;;;;;;23.51;58.12;93875.84;5124754;27;20069;-49
2022/05/26 06:44:49;;;;;;;23.20;18.08;;;;;;;23.76;57.71;93872.94;5108057;28;20457;-48
2022/05/26 06:47:18;;;;;;;25.08;17.27;;;;;;;23.84;56.68;93879.00;5107742;28;20106;-47
2022/05/26 06:49:44;;;;;;;23.27;16.83;;;;;;;24.08;56.87;93878.16;5108022;28;20020;-52
2022/05/26 06:52:11;;;;;;;28.98;17.60;;;;;;;24.00;56.98;93877.72;5107706;28;20084;-49
2022/05/26 06:54:40;;;;;;;24.23;16.63;;;;;;;24.20;54.64;93878.06;5107664;28;20035;-48
2022/05/26 06:57:06;;;;;;;24.77;16.02;;;;;;;24.19;55.42;93878.69;5107851;28;20024;-49
2022/05/26 06:59:33;;;;;;;19.85;16.73;;;;;;;24.61;55.44;93883.59;5112064;28;20099;-45
2022/05/26 07:01:58;;;;;;;23.88;16.50;;;;;;;24.91;52.70;93887.94;5127070;28;20015;-50
2022/05/26 07:04:24;;;;;;;19.17;15.07;;;;;;;25.28;52.18;93893.94;5127873;27;20042;-47
2022/05/26 07:06:51;;;;;;;19.52;14.40;;;;;;;25.10;51.81;93900.84;5127825;28;20072;-48
2022/05/26 07:09:17;;;;;;;23.17;15.27;;;;;;;25.44;51.77;93894.72;5128182;27;20110;-50
2022/05/26 07:11:43;;;;;;;25.30;15.23;;;;;;;25.96;51.23;93882.19;5128031;27;20404;-47
2022/05/26 07:14:08;;;;;;;22.40;12.48;;;;;;;26.77;46.08;93892.03;5127778;27;20019;-46
2022/05/26 07:16:34;;;;;;;30.67;13.43;;;;;;;27.42;44.33;93895.38;5127632;27;20023;-46
2022/05/26 07:18:59;;;;;;;21.23;11.70;;;;;;;28.33;42.66;93893.78;5127975;27;20030;-46
2022/05/26 07:21:25;;;;;;;36.45;14.13;;;;;;;29.39;39.37;93895.91;5127593;27;20528;-46
2022/05/26 07:23:50;;;;;;;240.75;28.08;;;;;;;30.28;37.20;93904.22;5127783;27;20028;-47
2022/05/26 07:26:17;;;;;;;25.55;12.00;;;;;;;30.57;37.01;93909.34;5127485;27;20015;-46
2022/05/26 07:28:43;;;;;;;29.40;11.85;;;;;;;31.48;34.55;93909.53;5119698;27;20480;-47
2022/05/26 07:31:10;;;;;;;16.70;10.52;;;;;;;32.34;34.02;93902.13;5107267;28;20416;-47
2022/05/26 07:33:35;;;;;;;47.35;12.40;;;;;;;33.29;31.87;93901.75;5110527;28;20080;-47
2022/05/26 07:36:01;;;;;;;19.60;9.95;;;;;;;34.00;30.28;93897.78;5127166;27;20122;-49
2022/05/26 07:41:25;;;;;;;17.40;9.55;;;;;;;35.60;27.37;93912.47;5113858;28;20039;-46
2022/05/26 07:43:57;;;;;;;14.50;9.75;;;;;;;36.11;26.31;93907.06;5112641;28;20027;-46
2022/05/26 07:46:23;;;;;;;37.10;10.15;;;;;;;36.48;26.49;93909.44;5113354;28;20054;-46
2022/05/26 07:48:50;;;;;;;18.48;8.10;;;;;;;37.24;24.23;93903.16;5112511;28;20615;-49
2022/05/26 07:51:19;;;;;;;16.50;7.90;;;;;;;37.73;23.61;93900.25;5113598;28;20024;-47
2022/05/26 07:53:45;;;;;;;11.63;7.05;;;;;;;38.19;22.92;93903.09;5113247;28;20019;-50
2022/05/26 07:56:10;;;;;;;10.05;6.10;;;;;;;38.46;23.13;93909.53;5113538;28;20023;-47
2022/05/26 07:58:36;;;;;;;58.38;9.52;;;;;;;39.18;21.62;93914.94;5113157;28;20106;-48
2022/05/26 08:01:03;;;;;;;12.25;6.20;;;;;;;39.56;20.49;93911.09;5113416;28;20095;-46
2022/05/26 08:03:29;;;;;;;8.90;6.05;;;;;;;39.62;20.36;93913.19;5113507;28;20023;-49
2022/05/26 08:05:55;;;;;;;10.77;6.97;;;;;;;39.33;20.45;93909.81;5113224;28;20463;-45
2022/05/26 08:08:20;;;;;;;18.98;7.97;;;;;;;39.26;21.13;93908.41;5113076;28;20113;-45
2022/05/26 08:10:46;;;;;;;13.35;8.10;;;;;;;39.80;21.09;93901.50;5113189;28;20019;-46
2022/05/26 08:13:11;;;;;;;13.63;7.63;;;;;;;39.91;19.63;93902.84;5112964;28;20023;-46
2022/05/26 08:15:37;;;;;;;12.30;7.35;;;;;;;40.03;20.88;93912.13;5113178;28;20026;-45
2022/05/26 08:18:02;;;;;;;13.75;7.28;;;;;;;39.91;19.80;93903.56;5112853;28;20031;-45
2022/05/26 08:20:28;;;;;;;14.38;6.70;;;;;;;40.23;20.08;93916.25;5112818;28;20111;-47
2022/05/26 08:22:54;;;;;;;13.65;6.95;;;;;;;39.75;20.53;93915.25;5113013;27;20035;-48
2022/05/26 08:25:20;;;;;;;14.48;6.68;;;;;;;40.17;19.81;93904.75;5113017;28;20020;-46
2022/05/26 08:27:45;;;;;;;14.82;6.32;;;;;;;40.48;19.60;93918.16;5112635;28;20470;-45
2022/05/26 08:30:11;;;;;;;11.57;6.55;;;;;;;41.17;19.56;93923.81;5092836;28;20054;-45
2022/05/26 08:32:37;;;;;;;8.70;6.82;;;;;;;41.01;18.55;93926.94;5100641;28;20524;-48
2022/05/26 08:35:06;;;;;;;77.13;10.52;;;;;;;41.09;19.49;93921.03;5096722;28;20114;-51
2022/05/26 08:37:32;;;;;;;26.33;7.60;;;;;;;41.15;19.60;93929.63;5092154;28;20024;-46
2022/05/26 08:39:57;;;;;;;9.93;4.07;;;;;;;40.99;18.70;93943.63;5092320;28;20077;-48
2022/05/26 08:42:31;;;;;;;13.13;6.18;;;;;;;40.62;18.09;93926.69;5092299;28;20023;-50
2022/05/26 08:45:09;;;;;;;10.95;5.88;;;;;;;39.75;20.28;93923.94;5091907;28;20024;-45
2022/05/26 08:47:40;;;;;;;9.18;5.43;;;;;;;39.81;20.35;93934.75;5090624;28;20031;-45
2022/05/26 08:50:35;;;;;;;10.82;6.07;;;;;;;39.96;20.45;93939.63;5089996;28;20024;-50
2022/05/26 08:53:05;;;;;;;12.60;6.78;;;;;;;40.04;19.26;93930.22;5082645;28;20062;-50
2022/05/26 08:55:51;;;;;;;11.95;6.25;;;;;;;39.60;20.68;93934.19;5090647;28;20496;-45
2022/05/26 08:58:20;;;;;;;16.25;4.43;;;;;;;38.89;20.37;93927.38;5090481;28;20031;-47
2022/05/26 09:00:48;;;;;;;13.90;3.50;;;;;;;38.67;21.29;93928.91;5091907;28;20024;-49
2022/05/26 09:03:30;;;;;;;13.80;4.03;;;;;;;39.03;20.66;93933.09;5090737;28;20381;-50
2022/05/26 09:06:05;;;;;;;8.23;3.63;;;;;;;38.97;19.64;93939.59;5091346;28;20573;-49
2022/05/26 09:14:29;;;;;;;29.05;5.15;;;;;;;37.77;21.72;93947.09;5091755;28;20028;-47
2022/05/26 09:16:59;;;;;;;9.48;3.88;;;;;;;38.23;21.92;93937.69;5091249;28;20027;-47
2022/05/26 09:19:33;;;;;;;7.18;3.60;;;;;;;38.21;20.80;93937.69;5091184;28;20012;-47
2022/05/26 09:21:59;;;;;;;8.80;3.00;;;;;;;37.98;20.74;93939.19;5089984;28;20104;-46
2022/05/26 09:24:37;;;;;;;5.95;3.35;;;;;;;38.24;22.14;93942.03;5090225;28;20451;-45
2022/05/26 09:27:22;;;;;;;7.60;3.67;;;;;;;37.41;22.48;93943.50;5091324;28;20506;-46
2022/05/26 09:29:47;;;;;;;5.68;3.47;;;;;;;36.80;22.61;93937.56;5105698;28;20100;-46
2022/05/26 09:32:16;;;;;;;6.15;2.88;;;;;;;36.83;23.32;93941.19;5111696;28;20601;-45
2022/05/26 09:34:41;;;;;;;9.45;3.85;;;;;;;36.01;24.00;93932.88;5097173;28;20024;-46
2022/05/26 09:37:10;;;;;;;6.38;3.80;;;;;;;35.12;25.90;93943.63;5089563;28;20046;-45
2022/05/26 09:39:38;;;;;;;28.77;4.72;;;;;;;34.39;26.99;93947.78;5091171;28;20125;-47
2022/05/26 09:42:07;;;;;;;58.72;7.25;;;;;;;34.07;26.16;93947.34;5090788;28;20524;-47
2022/05/26 09:45:02;;;;;;;8.80;4.15;;;;;;;34.57;26.40;93935.81;5090829;28;20419;-45
2022/05/26 09:47:32;;;;;;;8.07;3.53;;;;;;;34.81;26.47;93928.22;5087836;28;20513;-46
2022/05/26 09:50:00;;;;;;;12.20;4.25;;;;;;;35.16;26.87;93928.59;5089793;28;20074;-49
2022/05/26 09:52:28;;;;;;;8.70;3.97;;;;;;;35.92;25.31;93926.34;5091019;28;20557;-47
2022/05/26 09:55:18;;;;;;;5.50;3.65;;;;;;;36.85;24.30;93935.44;5089431;28;20553;-48
2022/05/26 09:57:44;;;;;;;8.02;4.18;;;;;;;36.97;24.36;93933.31;5090961;28;20568;-46
2022/05/26 10:00:39;;;;;;;9.57;6.03;;;;;;;37.57;21.45;93929.13;5090598;28;20031;-46
2022/05/26 10:03:10;;;;;;;8.45;4.47;;;;;;;38.42;22.86;93929.75;5090828;28;20115;-47
2022/05/26 10:05:51;;;;;;;6.72;4.13;;;;;;;38.56;20.50;93930.41;5090426;28;20073;-45
2022/05/26 10:08:31;;;;;;;10.55;4.85;;;;;;;39.14;21.50;93925.81;5090492;28;20047;-45
2022/05/26 10:11:15;;;;;;;12.13;4.57;;;;;;;39.98;20.45;93913.63;5089258;28;20077;-48
2022/05/26 10:13:58;;;;;;;6.75;4.18;;;;;;;40.40;19.16;93920.41;5090525;28;20027;-47
2022/05/26 11:23:44;;;;;;;13.65;4.68;;;;;;;34.98;27.18;93886.06;5128428;27;20618;-48
2022/05/26 11:26:38;;;;;;;12.27;4.22;;;;;;;34.21;26.60;93882.34;5128410;27;20478;-48
2022/05/26 11:29:16;;;;;;;9.18;5.35;;;;;;;33.78;28.94;93880.31;5128027;27;20050;-48
2022/05/26 11:37:28;;;;;;;9.85;5.60;;;;;;;30.41;36.01;93926.72;5127265;28;20088;-47
2022/05/26 11:40:00;;;;;;;17.25;6.47;;;;;;;29.84;38.52;93898.72;5128192;27;20023;-50
2022/05/26 11:42:49;;;;;;;9.38;4.43;;;;;;;30.32;37.84;93895.84;5128136;27;20025;-47
2022/05/26 11:45:27;;;;;;;9.63;4.55;;;;;;;30.35;40.39;93891.63;5127988;27;20024;-50
2022/05/26 11:47:56;;;;;;;10.02;4.18;;;;;;;30.46;38.75;93896.22;5108367;28;20404;-47
2022/05/26 11:51:00;;;;;;;6.63;4.25;;;;;;;30.27;40.27;93902.78;5107729;28;20028;-52
2022/05/26 11:53:35;;;;;;;8.60;4.35;;;;;;;30.06;41.18;93909.31;5105286;28;20790;-47
2022/05/26 11:56:28;;;;;;;10.32;5.35;;;;;;;29.76;40.17;93909.88;5107251;28;20035;-51
2022/05/26 11:59:26;;;;;;;7.63;4.85;;;;;;;30.07;40.55;93890.81;5107212;28;20511;-47
2022/05/26 12:01:58;;;;;;;11.48;4.70;;;;;;;30.16;40.83;93887.53;5106325;28;20459;-49
2022/05/26 12:04:26;;;;;;;5.50;4.30;;;;;;;30.18;38.48;93896.16;5107513;28;20084;-48
2022/05/26 12:07:03;;;;;;;8.63;4.28;;;;;;;30.02;39.05;93906.38;5107452;28;20031;-48
2022/05/26 12:09:31;;;;;;;8.57;4.97;;;;;;;30.04;39.42;93915.66;5106131;28;20043;-48
2022/05/26 12:11:58;;;;;;;13.65;5.10;;;;;;;29.99;40.87;93919.81;5107224;28;20549;-49
2022/05/26 12:14:26;;;;;;;6.97;5.03;;;;;;;29.89;41.04;93908.84;5107284;28;20078;-49
2022/05/26 12:16:52;;;;;;;6.63;4.55;;;;;;;30.11;43.30;93896.63;5106902;28;20507;-48
2022/05/26 12:19:40;;;;;;;9.27;4.95;;;;;;;29.98;40.81;93901.25;5107132;28;20059;-48
2022/05/26 12:22:31;;;;;;;7.15;4.88;;;;;;;29.96;41.54;93904.06;5105213;28;20073;-48
2022/05/26 12:25:06;;;;;;;9.55;4.82;;;;;;;29.74;42.87;93920.47;5074823;28;20428;-48
2022/05/26 12:27:54;;;;;;;10.23;5.57;;;;;;;29.51;44.15;93919.06;5093210;28;20028;-46
2022/05/26 12:30:36;;;;;;;8.77;4.30;;;;;;;29.43;42.22;93923.78;5093151;28;20053;-49
2022/05/26 12:33:22;;;;;;;8.02;4.80;;;;;;;29.31;41.80;93940.44;5092929;28;20032;-48
2022/05/26 12:35:51;;;;;;;9.73;4.70;;;;;;;28.80;43.23;93952.25;5092129;28;20462;-47
2022/05/26 12:38:32;;;;;;;9.70;4.55;;;;;;;28.52;43.42;93961.19;5093235;28;20103;-48
2022/05/26 12:41:00;;;;;;;16.77;9.20;;;;;;;28.01;43.46;93972.13;5092902;28;20111;-48
2022/05/26 12:43:28;;;;;;;9.10;6.13;;;;;;;27.53;45.84;93944.69;5092859;28;20485;-48
2022/05/26 12:49:28;;;;;;;5.80;4.72;;;;;;;27.05;47.94;93912.28;5092756;28;20618;-49
2022/05/26 12:52:07;;;;;;;6.85;5.40;;;;;;;26.96;46.44;93894.22;5092973;28;20032;-50
2022/05/26 13:12:19;;;;;;;11.23;5.28;;;;;;;28.52;48.39;93900.84;5128355;27;20607;-48
2022/05/26 13:14:50;;;;;;;6.45;5.25;;;;;;;28.23;47.43;93884.91;5128404;27;20110;-49
2022/05/26 13:17:22;;;;;;;10.85;5.57;;;;;;;28.01;47.76;93883.38;5125981;28;20023;-48
2022/05/26 13:20:00;;;;;;;11.00;5.88;;;;;;;27.68;49.89;93870.81;5107970;28;20055;-48
2022/05/26 13:22:33;;;;;;;18.95;6.03;;;;;;;27.77;48.01;93866.91;5108022;28;20028;-48
2022/05/26 13:25:13;;;;;;;5.25;4.75;;;;;;;27.66;48.43;93867.19;5107676;28;20084;-48
2022/05/26 13:27:43;;;;;;;8.05;5.47;;;;;;;27.32;50.40;93858.09;5107651;28;20023;-49
2022/05/26 13:33:11;;;;;;;8.32;4.90;;;;;;;27.38;48.66;93849.09;5107600;28;20062;-48
2022/05/26 13:35:47;;;;;;;7.45;4.63;;;;;;;27.67;50.41;93849.53;5118937;28;20035;-49
2022/05/26 13:38:29;;;;;;;6.95;5.30;;;;;;;27.79;48.09;93844.28;5127030;28;20023;-47
2022/05/26 13:40:56;;;;;;;10.07;5.32;;;;;;;27.91;48.46;93851.78;5128162;27;20043;-47
2022/05/26 13:43:22;;;;;;;10.85;4.75;;;;;;;28.02;48.34;93856.47;5126903;28;20027;-49
2022/05/26 13:45:48;;;;;;;7.72;5.40;;;;;;;28.00;47.64;93850.72;5127745;27;20552;-47
2022/05/26 13:48:20;;;;;;;5.05;4.35;;;;;;;28.07;48.73;93844.59;5127706;27;20027;-48